createdAt,value
2019-02-02T00:01:08.380Z,54.87
2019-02-02T00:03:36.804Z,50.97
2019-02-02T00:06:05.466Z,53.67
2019-02-02T00:08:34.000Z,52.50
2019-02-02T00:11:02.958Z,50.43
2019-02-02T00:13:31.496Z,51.43
2019-02-02T00:16:00.016Z,53.33
2019-02-02T00:18:28.587Z,51.60
2019-02-02T00:20:57.079Z,51.40
2019-02-02T00:23:25.699Z,50.30
2019-02-02T00:25:54.443Z,49.63
2019-02-02T00:28:25.710Z,51.17
2019-02-02T00:30:54.474Z,50.17
2019-02-02T00:33:22.992Z,52.03
2019-02-02T00:35:51.673Z,50.50
2019-02-02T00:38:20.238Z,48.17
2019-02-02T00:40:48.916Z,51.83
2019-02-02T00:43:17.429Z,48.77
2019-02-02T00:45:47.760Z,51.90
2019-02-02T00:48:16.335Z,50.63
2019-02-02T00:50:44.926Z,49.83
2019-02-02T00:53:13.476Z,49.83
2019-02-02T00:55:42.319Z,48.67
2019-02-02T00:58:11.088Z,48.63
2019-02-02T01:00:39.615Z,48.63
2019-02-02T01:03:08.045Z,48.07
2019-02-02T01:05:37.315Z,48.53
2019-02-02T01:08:05.944Z,48.13
2019-02-02T01:10:34.702Z,47.17
2019-02-02T01:13:03.186Z,48.97
2019-02-02T01:15:31.872Z,49.60
2019-02-02T01:18:00.470Z,50.63
2019-02-02T01:20:29.156Z,46.57
2019-02-02T01:22:57.739Z,48.63
2019-02-02T01:25:26.262Z,49.00
2019-02-02T01:28:04.832Z,49.57
2019-02-02T01:30:25.436Z,47.23
2019-02-02T01:32:54.142Z,46.93
2019-02-02T01:35:22.692Z,46.17
2019-02-02T01:37:51.387Z,45.50
2019-02-02T01:40:20.038Z,47.47
2019-02-02T01:42:48.658Z,43.10
2019-02-02T01:45:18.461Z,45.07
2019-02-02T01:47:47.045Z,43.30
2019-02-02T01:50:16.207Z,44.33
2019-02-02T01:52:45.133Z,43.83
2019-02-02T01:55:13.998Z,44.60
2019-02-02T01:57:42.503Z,45.33
2019-02-02T02:00:12.500Z,44.53
2019-02-02T02:02:40.996Z,45.00
2019-02-02T02:05:09.542Z,46.47
2019-02-02T02:07:38.055Z,43.73
2019-02-02T02:10:07.704Z,44.37
2019-02-02T02:12:36.236Z,46.67
2019-02-02T02:15:05.169Z,45.67
2019-02-02T02:17:33.705Z,46.47
2019-02-02T02:20:03.927Z,44.93
2019-02-02T02:22:40.830Z,47.33
2019-02-02T02:25:02.959Z,46.13
2019-02-02T02:27:31.524Z,45.57
2019-02-02T02:30:00.054Z,46.83
2019-02-02T02:32:28.712Z,45.83
2019-02-02T02:34:57.225Z,47.30
2019-02-02T02:37:25.990Z,44.23
2019-02-02T02:39:55.278Z,45.27
2019-02-02T02:42:23.920Z,46.60
2019-02-02T02:44:52.621Z,45.67
2019-02-02T02:47:21.120Z,44.10
2019-02-02T02:49:49.626Z,44.03
2019-02-02T02:52:19.334Z,43.10
2019-02-02T02:54:48.063Z,42.63
2019-02-02T02:57:16.816Z,44.20
2019-02-02T02:59:45.390Z,43.77
2019-02-02T03:02:13.968Z,43.10
2019-02-02T03:04:42.598Z,41.30
2019-02-02T03:07:11.247Z,42.93
2019-02-02T03:09:39.787Z,44.43
2019-02-02T03:12:08.418Z,43.80
2019-02-02T03:14:37.165Z,44.03
2019-02-02T03:17:05.635Z,43.63
2019-02-02T03:19:34.198Z,44.03
2019-02-02T03:22:03.058Z,44.07
2019-02-02T03:24:33.862Z,43.03
2019-02-02T03:27:02.364Z,42.37
2019-02-02T03:29:31.003Z,42.73
2019-02-02T03:31:59.405Z,44.03
2019-02-02T03:34:27.908Z,40.93
2019-02-02T03:36:56.494Z,43.60
2019-02-02T03:39:25.047Z,41.80
2019-02-02T03:41:53.633Z,42.70
2019-02-02T03:44:22.233Z,42.90
2019-02-02T03:46:50.712Z,42.43
2019-02-02T03:49:19.160Z,42.10
2019-02-02T03:51:47.744Z,44.60
2019-02-02T03:54:16.406Z,42.27
2019-02-02T03:56:44.898Z,44.63
2019-02-02T03:59:13.633Z,44.00
2019-02-02T04:01:42.151Z,46.47
2019-02-02T04:04:10.666Z,47.13
2019-02-02T04:06:39.156Z,46.57
2019-02-02T04:09:07.726Z,48.53
2019-02-02T04:11:36.290Z,48.20
2019-02-02T04:14:05.847Z,47.97
2019-02-02T04:16:34.316Z,50.87
2019-02-02T04:19:02.747Z,53.40
2019-02-02T04:21:31.320Z,52.20
2019-02-02T04:23:59.919Z,52.73
2019-02-02T04:26:28.595Z,52.90
2019-02-02T04:28:58.755Z,55.97
2019-02-02T04:31:27.217Z,54.37
2019-02-02T04:33:56.856Z,54.60
2019-02-02T04:36:25.359Z,54.30
2019-02-02T04:38:58.734Z,52.43
2019-02-02T04:41:27.235Z,54.47
2019-02-02T04:43:55.696Z,54.50
2019-02-02T04:46:24.372Z,53.57
2019-02-02T04:48:52.816Z,54.30
2019-02-02T04:51:21.263Z,54.23
2019-02-02T04:53:49.739Z,53.40
2019-02-02T04:56:18.211Z,52.83
2019-02-02T04:58:46.684Z,55.77
2019-02-02T05:01:15.165Z,55.37
2019-02-02T05:03:43.617Z,54.33
2019-02-02T05:06:12.128Z,53.50
2019-02-02T05:08:40.714Z,52.17
2019-02-02T05:11:09.707Z,53.93
2019-02-02T05:13:38.184Z,52.37
2019-02-02T05:16:08.967Z,52.80
2019-02-02T05:18:37.504Z,52.07
2019-02-02T05:21:05.992Z,52.40
2019-02-02T05:23:34.595Z,48.60
2019-02-02T05:26:03.175Z,49.30
2019-02-02T05:28:31.602Z,50.83
2019-02-02T05:31:00.819Z,50.37
2019-02-02T05:33:29.389Z,50.23
2019-02-02T05:35:57.997Z,50.37
2019-02-02T05:38:26.508Z,49.27
2019-02-02T05:40:55.326Z,47.97
2019-02-02T05:43:23.935Z,47.53
2019-02-02T05:45:52.766Z,47.90
2019-02-02T05:48:21.224Z,45.67
2019-02-02T05:50:49.819Z,45.97
2019-02-02T05:53:20.033Z,46.80
2019-02-02T05:55:48.582Z,46.73
2019-02-02T05:58:17.251Z,46.30
2019-02-02T06:00:51.699Z,44.63
2019-02-02T06:03:20.200Z,45.43
2019-02-02T06:05:48.685Z,45.67
2019-02-02T06:08:17.173Z,43.13
2019-02-02T06:10:45.672Z,43.17
2019-02-02T06:13:14.176Z,44.10
2019-02-02T06:15:42.724Z,44.73
2019-02-02T06:18:11.317Z,44.40
2019-02-02T06:20:39.908Z,44.33
2019-02-02T06:23:08.581Z,44.93
2019-02-02T06:25:37.099Z,43.50
2019-02-02T06:28:05.686Z,44.23
2019-02-02T06:30:34.371Z,43.07
2019-02-02T06:33:02.828Z,42.57
2019-02-02T06:35:31.444Z,44.07
2019-02-02T06:37:59.881Z,42.90
2019-02-02T06:40:28.393Z,43.83
2019-02-02T06:42:57.156Z,42.07
2019-02-02T06:45:26.941Z,41.20
2019-02-02T06:47:55.609Z,43.63
2019-02-02T06:50:24.071Z,42.37
2019-02-02T06:52:53.078Z,43.67
2019-02-02T06:55:21.614Z,43.43
2019-02-02T06:57:50.159Z,43.83
2019-02-02T07:00:19.564Z,42.53
2019-02-02T07:02:48.115Z,43.63
2019-02-02T07:05:16.625Z,44.13
2019-02-02T07:07:45.224Z,42.63
2019-02-02T07:10:15.143Z,44.13
2019-02-02T07:12:43.766Z,42.53
2019-02-02T07:15:12.662Z,43.90
2019-02-02T07:17:41.715Z,42.80
2019-02-02T07:20:10.928Z,42.27
2019-02-02T07:22:39.465Z,43.73
2019-02-02T07:25:09.734Z,41.57
2019-02-02T07:27:38.377Z,42.93
2019-02-02T07:30:08.460Z,42.37
2019-02-02T07:32:36.968Z,42.30
2019-02-02T07:35:06.585Z,44.23
2019-02-02T07:37:35.209Z,42.63
2019-02-02T07:40:04.435Z,42.60
2019-02-02T07:42:32.912Z,44.73
2019-02-02T07:45:01.492Z,43.33
2019-02-02T07:47:29.974Z,44.40
2019-02-02T07:49:58.578Z,43.73
2019-02-02T07:52:27.028Z,45.77
2019-02-02T07:54:55.412Z,46.33
2019-02-02T07:57:23.951Z,44.27
2019-02-02T07:59:52.515Z,44.50
2019-02-02T08:02:25.455Z,45.13
2019-02-02T08:04:54.102Z,45.40
2019-02-02T08:07:22.685Z,45.13
2019-02-02T08:09:51.301Z,48.83
2019-02-02T08:12:19.809Z,48.13
2019-02-02T08:14:53.753Z,45.07
2019-02-02T08:17:22.272Z,44.67
2019-02-02T08:19:50.896Z,46.40
2019-02-02T08:22:19.325Z,46.40
2019-02-02T08:24:48.883Z,44.47
2019-02-02T08:27:17.645Z,47.57
2019-02-02T08:29:46.301Z,46.60
2019-02-02T08:32:15.185Z,45.03
2019-02-02T08:34:45.584Z,45.53
2019-02-02T08:37:14.494Z,44.97
2019-02-02T08:39:43.523Z,45.13
2019-02-02T08:42:17.836Z,44.43
2019-02-02T08:44:50.461Z,43.47
2019-02-02T08:47:25.469Z,43.93
2019-02-02T08:50:04.060Z,44.07
2019-02-02T08:52:33.157Z,44.20
2019-02-02T08:55:05.404Z,42.27
2019-02-02T09:04:56.493Z,40.33
2019-02-02T09:13:16.385Z,43.87
2019-02-02T09:15:54.376Z,43.37
2019-02-02T09:18:27.049Z,43.03
2019-02-02T12:18:26.258Z,27.33
2019-02-02T12:21:01.680Z,25.33
2019-02-02T12:23:29.939Z,26.97
2019-02-02T12:26:10.249Z,26.00
2019-02-02T12:28:39.011Z,26.13
2019-02-02T12:31:17.088Z,26.90
2019-02-02T12:33:46.403Z,26.97
2019-02-02T12:36:20.195Z,27.60
2019-02-02T12:38:48.396Z,28.43
2019-02-02T12:41:17.962Z,27.90
2019-02-02T12:43:46.783Z,26.80
2019-02-02T12:46:18.554Z,24.73
2019-02-02T12:48:55.125Z,23.23
2019-02-02T12:51:27.615Z,24.03
2019-02-02T12:53:56.118Z,24.20
2019-02-02T12:59:38.728Z,19.97
2019-02-02T13:02:14.165Z,19.73
2019-02-02T13:04:43.060Z,20.47
2019-02-02T13:07:11.685Z,19.13
2019-02-02T13:09:41.214Z,18.27
2019-02-02T13:12:10.645Z,17.70
2019-02-02T13:14:39.337Z,18.47
2019-02-02T13:17:10.888Z,17.63
2019-02-02T13:19:40.287Z,19.13
2019-02-02T13:22:12.896Z,18.77
2019-02-02T13:24:42.046Z,19.43
2019-02-02T13:27:11.561Z,20.10
2019-02-02T13:29:40.548Z,20.47
2019-02-02T13:32:09.406Z,21.60
2019-02-02T13:34:40.207Z,20.30
2019-02-02T13:37:08.710Z,19.13
2019-02-02T13:39:37.502Z,17.50
2019-02-02T13:42:10.124Z,16.73
2019-02-02T13:44:41.756Z,16.47
2019-02-02T13:47:13.930Z,16.00
2019-02-02T13:49:42.952Z,16.37
2019-02-02T13:52:11.669Z,16.50
2019-02-02T13:54:40.369Z,16.07
2019-02-02T13:57:12.357Z,16.33
2019-02-02T13:59:41.074Z,15.90
2019-02-02T14:02:10.484Z,16.87
2019-02-02T14:04:42.418Z,16.60
2019-02-02T14:07:17.699Z,17.77
2019-02-02T14:09:44.645Z,17.10
2019-02-02T14:12:13.252Z,18.10
2019-02-02T14:14:42.027Z,18.10
2019-02-02T14:17:10.682Z,17.80
2019-02-02T14:19:44.251Z,18.73
2019-02-02T14:22:12.771Z,17.53
2019-02-02T14:24:41.351Z,17.60
2019-02-02T14:27:13.442Z,18.33
2019-02-02T14:29:43.730Z,16.93
2019-02-02T14:32:24.839Z,18.50
2019-02-02T14:34:57.539Z,19.33
2019-02-02T14:37:26.221Z,19.93
2019-02-02T14:39:54.998Z,20.70
2019-02-02T14:42:23.575Z,20.20
2019-02-02T14:44:59.617Z,20.87
2019-02-02T14:47:28.122Z,20.30
2019-02-02T14:49:56.678Z,21.10
2019-02-02T14:52:25.363Z,21.53
2019-02-02T14:54:54.048Z,23.33
2019-02-02T14:57:22.867Z,22.90
2019-02-02T14:59:51.557Z,22.20
2019-02-02T15:02:20.407Z,21.97
2019-02-02T15:04:49.156Z,22.47
2019-02-02T15:07:18.497Z,22.20
2019-02-02T15:09:47.651Z,23.27
2019-02-02T15:12:16.199Z,24.07
2019-02-02T15:14:44.955Z,23.33
2019-02-02T15:17:13.651Z,23.60
2019-02-02T15:19:42.784Z,23.20
2019-02-02T15:22:11.344Z,23.23
2019-02-02T15:24:39.997Z,23.47
2019-02-02T15:27:08.535Z,22.87
2019-02-02T15:29:37.368Z,23.70
2019-02-02T15:32:06.917Z,22.63
2019-02-02T15:34:35.697Z,24.47
2019-02-02T15:37:04.700Z,24.43
2019-02-02T15:39:36.727Z,23.17
2019-02-02T15:42:07.445Z,21.77
2019-02-02T15:44:36.504Z,23.93
2019-02-02T15:47:05.389Z,23.47
2019-02-02T15:49:34.362Z,24.00
2019-02-02T15:52:03.197Z,22.53
2019-02-02T15:54:32.100Z,22.90
2019-02-02T15:57:00.696Z,23.03
2019-02-02T15:59:29.126Z,22.83
2019-02-02T16:01:57.863Z,21.67
2019-02-02T16:04:31.126Z,20.30
2019-02-02T16:06:59.710Z,20.10
2019-02-02T16:09:28.454Z,19.97
2019-02-02T16:11:56.937Z,19.50
2019-02-02T16:14:25.565Z,18.73
2019-02-02T16:16:54.353Z,19.37
2019-02-02T16:19:22.920Z,22.33
2019-02-02T16:21:51.480Z,20.93
2019-02-02T16:24:20.307Z,21.53
2019-02-02T16:26:48.828Z,21.10
2019-02-02T16:29:17.334Z,21.97
2019-02-02T16:31:45.843Z,23.00
2019-02-02T16:34:14.534Z,23.27
2019-02-02T16:36:51.149Z,24.53
2019-02-02T16:39:19.777Z,23.77
2019-02-02T16:41:49.556Z,25.50
2019-02-02T16:44:18.518Z,24.83
2019-02-02T16:46:47.067Z,27.50
2019-02-02T16:49:16.265Z,26.70
2019-02-02T16:51:44.988Z,27.30
2019-02-02T16:54:13.467Z,27.20
2019-02-02T16:56:42.075Z,26.77
2019-02-02T16:59:10.669Z,28.90
2019-02-02T17:01:39.799Z,27.37
2019-02-02T17:04:15.915Z,26.77
2019-02-02T17:06:40.088Z,28.97
2019-02-02T17:09:08.948Z,29.53
2019-02-02T17:11:37.444Z,28.67
2019-02-02T17:14:06.359Z,30.20
2019-02-02T17:16:35.198Z,29.63
2019-02-02T17:19:07.244Z,31.17
2019-02-02T17:21:35.998Z,29.40
2019-02-02T17:24:29.681Z,31.03
2019-02-02T17:27:24.163Z,29.27
2019-02-02T17:29:56.443Z,28.63
2019-02-02T17:32:27.493Z,29.00
2019-02-02T17:34:56.800Z,32.23
2019-02-02T17:37:26.921Z,31.33
2019-02-02T17:40:00.574Z,31.57
2019-02-02T17:42:32.435Z,31.30
2019-02-02T17:45:03.272Z,33.13
2019-02-02T17:50:44.401Z,31.23
2019-02-02T17:53:13.515Z,29.23
2019-02-02T17:55:45.558Z,27.90
2019-02-02T17:58:17.010Z,26.63
2019-02-02T18:00:59.512Z,26.37
2019-02-02T18:03:28.520Z,27.60
2019-02-02T18:05:57.745Z,25.57
2019-02-02T18:08:39.324Z,23.97
2019-02-02T18:11:10.221Z,26.30
2019-02-02T18:13:40.565Z,23.90
2019-02-02T18:16:36.965Z,22.63
2019-02-02T18:19:06.583Z,21.40
2019-02-02T18:21:36.188Z,20.13
2019-02-02T18:24:17.605Z,18.20
2019-02-02T18:26:55.011Z,17.97
2019-02-02T18:29:24.724Z,18.73
2019-02-02T18:31:54.332Z,18.50
2019-02-02T18:34:24.064Z,19.27
2019-02-02T18:36:56.611Z,17.73
2019-02-02T18:39:32.439Z,16.63
2019-02-02T19:04:19.024Z,20.63
2019-02-02T20:51:47.017Z,28.93
2019-02-02T21:44:42.582Z,37.40
2019-02-02T21:55:24.188Z,37.17
2019-02-02T21:57:52.864Z,39.37
2019-02-02T22:00:26.059Z,38.30
2019-02-02T22:03:00.742Z,37.80
2019-02-02T22:05:29.458Z,37.80
2019-02-02T22:08:17.891Z,37.23
2019-02-02T22:10:50.890Z,37.90
2019-02-02T22:13:25.394Z,37.83
2019-02-02T22:15:54.077Z,36.63
2019-02-02T22:18:28.861Z,36.07
2019-02-02T22:21:25.986Z,34.93
2019-02-02T22:23:55.074Z,34.83
2019-02-02T22:26:23.712Z,37.30
2019-02-02T22:28:57.784Z,36.87
2019-02-02T22:31:25.934Z,36.33
2019-02-02T22:33:56.492Z,37.63
2019-02-02T22:36:32.455Z,36.13
2019-02-02T22:42:58.426Z,33.23
2019-02-02T22:45:29.476Z,32.20
2019-02-02T22:48:03.105Z,32.63
2019-02-02T22:50:42.175Z,32.90
2019-02-02T22:53:14.085Z,30.30
2019-02-02T22:55:45.721Z,29.13
2019-02-02T22:58:17.614Z,28.07
2019-02-02T23:00:58.655Z,25.80
2019-02-02T23:03:48.497Z,25.10
2019-02-02T23:06:45.365Z,22.93
2019-02-02T23:09:24.364Z,23.13
2019-02-02T23:12:10.432Z,23.97
2019-02-02T23:15:03.022Z,23.23
2019-02-02T23:17:36.743Z,22.43
2019-02-02T23:20:06.417Z,22.90
2019-02-02T23:23:06.251Z,22.50
2019-02-02T23:25:56.749Z,22.73
2019-02-02T23:28:30.096Z,21.50
2019-02-02T23:31:02.109Z,21.77
2019-02-02T23:33:30.908Z,21.50
2019-02-02T23:36:02.647Z,20.43
2019-02-02T23:38:31.462Z,19.87
2019-02-02T23:41:01.378Z,20.90
2019-02-02T23:43:32.183Z,21.63
2019-02-02T23:46:04.294Z,21.20
2019-02-02T23:48:34.234Z,20.73
2019-02-02T23:51:02.990Z,21.57
2019-02-02T23:53:36.721Z,20.80
2019-02-02T23:56:08.058Z,19.90
2019-02-02T23:58:40.212Z,20.73
